Create Custom Reports and Graphics: Custom Report

Alpine-Roundhouse Btm 6950'

Current Conditions

5/5/21 5:45 PM (-07:00)
Updated Every 15 Minutes
Temp 64.1 °F   4.7
RH 40 %   1
Wet Bulb 49.9 °F   4.0
Dew Pt 39.2 °F   5.0
Wind Spd 3.6 mph
Wind Dir S | 170 °
Wind Gust 7.2 mph   3.7
WindChill 64.1 °F   4.7
Barometric Pressure 30.14 inHg   0.01
Daily Min Temp 43.8 °F   4.7
Daily Max Temp 66.4 °F   5.3
Latest Rain 0.00 In
Daily Rain 0.00 In
New Snow 0.7 in
SnowDepth 12.0 in

Last 6 Hours

Alpine-Roundhouse Btm 6950'

15 Minute Data | America/Los_Angeles
as of 5/5/21 5:48 PM PDT
Date & Time Temp (°F) RH (%) Dew Pt (°F) Wet Bulb (°F) Wind Dir (°) Wind Spd (mph) Wind Gust (mph) WindChill (°F) Barometric Pressure (inHg) New Snow (in) SnowDepth (in) Latest Rain (In) Daily Rain (In) Daily Min Temp (°F) Daily Max Temp (°F)
5/5/21 - 1745 64.1 40 39.2 49.9 S | 170 3.6 7.2 64.1 30.14 0.7 12.0 0.00 0.00 43.8 66.4
5/5/21 - 1730 64.0 40 39.0 49.8 SSE | 151 3.3 9.8 64.0 30.14 0.6 12.0 0.00 0.00 43.8 66.4
5/5/21 - 1715 64.2 38 38.2 49.6 SSE | 161 3.8 7.8 64.2 30.15 0.5 11.4 0.00 0.00 43.8 66.4
5/5/21 - 1700 64.2 39 38.6 49.7 SE | 141 3.9 8.7 64.2 30.15 0.7 12.4 0.00 0.00 43.8 66.4
5/5/21 - 1645 63.7 39 38.2 49.4 SE | 139 5.2 10.0 63.7 30.13 0.7 12.0 0.00 0.00 43.8 66.4
5/5/21 - 1630 63.8 38 38.1 49.4 SE | 133 4.0 10.3 63.8 30.15 0.7 12.8 0.00 0.00 43.8 66.4
5/5/21 - 1615 64.3 37 37.7 49.4 SE | 143 5.4 16.9 64.3 30.15 0.7 11.9 0.00 0.00 43.8 66.4
5/5/21 - 1600 64.6 37 38.0 49.6 SSE | 149 3.7 12.0 64.6 30.15 0.7 12.7 0.00 0.00 43.8 66.4
5/5/21 - 1545 65.2 36 37.4 49.6 SSE | 164 4.4 11.1 65.2 30.15 0.7 12.4 0.00 0.00 43.8 66.4
5/5/21 - 1530 65.3 35 36.9 49.5 S | 174 4.0 9.2 65.3 30.15 0.6 12.3 0.00 0.00 43.8 66.4
5/5/21 - 1515 65.5 34 36.2 49.3 SSE | 157 3.1 10.4 65.5 30.15 0.8 12.9 0.00 0.00 43.8 66.4
5/5/21 - 1500 65.8 32 35.4 49.1 SSE | 150 4.4 10.0 65.8 30.15 0.7 12.8 0.00 0.00 43.8 66.4
5/5/21 - 1445 65.6 32 35.0 48.9 S | 172 4.2 8.8 65.6 30.16 0.6 12.4 0.00 0.00 43.8 66.4
5/5/21 - 1430 65.5 30 32.9 48.0 ESE | 111 4.4 9.0 65.5 30.15 0.8 12.8 0.00 0.00 43.8 66.1
5/5/21 - 1415 65.8 28 31.7 47.7 SSE | 156 4.2 9.4 65.8 30.15 0.7 12.7 0.00 0.00 43.8 66.1
5/5/21 - 1400 65.6 27 30.7 47.3 S | 177 4.5 10.7 65.6 30.15 0.5 12.8 0.00 0.00 43.8 66.0
5/5/21 - 1345 65.9 28 31.5 47.7 S | 183 2.9 7.4 65.9 30.15 0.7 13.0 0.00 0.00 43.8 66.0
5/5/21 - 1330 64.9 30 32.7 47.7 SSW | 197 3.2 6.0 64.9 30.15 0.6 12.5 0.00 0.00 43.8 66.0
5/5/21 - 1315 65.2 30 32.9 48.0 SW | 214 3.2 6.7 65.2 30.15 0.5 12.2 0.00 0.00 43.8 65.4
5/5/21 - 1300 64.1 31 33.0 47.5 S | 180 2.3 5.4 64.1 30.16 0.5 12.4 0.00 0.00 43.8 64.8
5/5/21 - 1245 64.5 31 33.4 47.8 S | 182 2.2 5.5 64.5 30.16 0.6 12.4 0.00 0.00 43.8 64.6
5/5/21 - 1230 63.2 34 34.2 47.6 SSW | 199 3.2 6.3 63.2 30.16 0.5 12.8 0.00 0.00 43.8 63.8
5/5/21 - 1215 61.7 32 31.8 46.1 SSW | 206 3.3 6.6 61.7 30.16 0.5 13.1 0.00 0.00 43.8 61.7
5/5/21 - 1200 60.7 34 32.2 45.8 SSW | 206 4.0 6.3 60.7 30.17 0.5 13.2 0.00 0.00 43.8 61.4
Max 65.9 40 39.2 49.9 - 5.4 16.9 65.9 30.17 0.8 13.2 0.00 0.00 43.8 66.4
Avg 64.5 34 35.2 48.5 - 3.8 8.8 64.5 30.15 0.6 12.5 0.00 - - -
Min 60.7 27 30.7 45.8 - 2.2 5.4 60.7 30.13 0.5 11.4 0.00 0.00 43.8 61.4
Total - - - - - - - - - - - 0.00 - - -

Last 30 Days

Alpine-Roundhouse Btm 6950'

Daily Data | America/Los_Angeles
as of 5/5/21 5:48 PM PDT
Date Daily Max Temp (°F) Time of Max Temp Daily Min Temp (°F) Time of Min Temp Wind Spd (mph) Daily Max Wind (mph) Max Wind Dir (°) Time of Max Wind Daily Rain (In) Seasonal Rainfall (In) SnowDepth (in) Max RH (%) Min RH (%) Wet Bulb (°F) WetB Hrs <28F (hrs) Min Press (inHg) Time of Min Press Bat Volt Min Day (V)
5/4/21 61.1 1324 39.0 0602 3.0 16.5 S | 176 1703 0.00 24.99 15.4 61 28 39.8 0.0 30.10 1640 13.0
5/3/21 57.6 1710 33.3 0641 2.3 12.3 N | 10 0926 0.00 24.99 18.4 73 25 35.7 0.0 30.04 0245 13.1
5/2/21 53.7 1724 36.2 0608 1.8 10.0 NNE | 31 1449 0.00 24.99 20.8 91 31 38.0 0.0 30.00 1650 13.0
5/1/21 56.8 1201 40.8 2210 4.7 22.2 SE | 139 1355 0.00 24.99 23.2 79 12 38.7 0.0 30.02 1910 13.0
4/30/21 65.2 1515 46.8 0531 3.6 18.0 SE | 144 1504 0.00 24.99 25.3 60 19 42.6 0.0 30.18 2355 13.0
4/29/21 65.8 1451 42.6 0500 2.7 11.1 SW | 215 1736 0.00 24.99 28.5 60 24 41.9 0.0 30.33 0010 13.0
4/28/21 58.7 1709 30.3 0435 2.1 9.7 SSW | 196 1323 0.00 24.99 31.4 70 11 34.2 3.7 30.19 0005 13.1
4/27/21 43.8 1608 25.9 0442 2.6 17.0 N | 352 1841 0.00 24.99 33.4 92 40 29.9 7.7 29.89 0130 13.1
4/26/21 35.0 1554 21.9 0412 3.8 19.1 SSE | 164 0117 0.01 24.99 34.9 87 50 25.2 17.8 29.78 0500 13.1
4/25/21 33.6 0418 25.9 2359 7.5 30.5 SE | 134 1608 0.43 24.98 36.9 96 75 29.7 2.5 29.75 1935 13.0
4/24/21 41.7 0003 32.7 2050 8.4 29.9 SSE | 156 0823 0.02 24.55 31.2 88 55 33.0 0.0 29.84 2335 13.0
4/23/21 52.4 1227 37.5 0702 3.6 20.6 ESE | 114 2354 0.00 24.53 32.3 81 35 37.5 0.0 29.98 2355 12.9
4/22/21 51.5 1308 34.8 0706 3.5 22.6 S | 170 1748 0.00 24.53 34.4 74 25 35.0 0.8 29.94 0315 13.0
4/21/21 52.5 1739 34.1 0601 1.7 11.5 NNE | 26 1530 0.00 24.53 36.0 82 23 35.4 0.0 29.88 0330 12.9
4/20/21 54.3 1219 38.7 0632 2.8 18.8 SSE | 155 1240 0.00 24.53 38.1 73 26 37.2 0.0 29.88 2015 13.1
4/19/21 58.2 1202 39.5 0647 2.6 12.4 SSE | 154 1343 0.00 24.53 40.5 59 23 38.4 0.0 30.11 2245 12.9
4/18/21 58.7 1653 32.5 0454 2.4 13.8 SSE | 154 1001 0.00 24.53 42.5 55 15 34.4 4.0 30.20 1900 13.0
4/17/21 49.0 1717 32.7 0529 4.0 20.7 NNW | 328 1222 0.00 24.53 43.9 59 22 32.0 0.7 30.09 0530 13.0
4/16/21 48.7 1628 31.7 0537 1.8 11.9 SSE | 157 1223 0.00 24.53 45.0 77 31 33.1 0.0 30.04 0445 13.0
4/15/21 46.8 1315 27.3 0647 1.8 10.3 NNW | 339 1429 0.00 24.53 47.0 84 32 31.2 7.6 29.98 0405 13.0
4/14/21 36.7 1410 26.5 0536 1.4 10.2 N | 353 1247 0.05 24.53 48.5 99 66 29.9 4.8 29.85 0355 13.0
4/13/21 45.3 1238 29.0 2347 3.8 27.0 SE | 134 0900 0.15 24.48 49.6 99 37 32.7 0.0 29.81 0725 12.9
4/12/21 54.9 1626 31.9 0658 2.5 13.3 SE | 146 1847 0.00 24.33 49.3 64 27 34.3 0.7 29.94 2320 13.0
4/11/21 56.9 1511 34.4 0606 2.1 11.2 SSE | 168 1732 0.00 24.33 50.6 63 24 35.1 2.0 29.96 1810 13.0
4/10/21 56.9 1128 32.9 0712 2.0 15.6 SSE | 166 1640 0.00 24.33 52.9 67 21 34.6 4.4 30.05 1850 13.0
4/9/21 52.8 1309 33.9 0705 2.8 14.3 SSE | 149 1616 0.00 24.33 54.8 75 27 35.0 0.0 30.08 1715 13.0
4/8/21 49.2 1522 34.0 0546 3.7 18.5 SE | 138 1423 0.00 24.33 56.5 66 28 33.0 1.2 30.11 0355 13.0
4/7/21 48.9 1310 35.4 0621 4.6 27.4 SE | 130 1752 0.00 24.33 57.7 84 29 34.4 0.6 30.09 1620 13.0
4/6/21 55.5 1141 32.3 0616 2.1 11.5 SSE | 158 1709 0.00 24.33 60.0 78 23 35.6 0.0 30.03 0325 13.0
4/5/21 47.4 1612 33.3 0851 5.0 23.9 S | 170 1224 0.02 24.33 61.3 90 30 34.8 0.0 30.00 1615 13.0
Max 65.8 - 46.8 - 8.4 30.5 - - 0.43 - 61.3 99 75 42.6 17.8 30.33 - 13.1
Avg - - - - 3.2 - - - - - 40.0 - - 34.7 - - - -
Min 33.6 - 21.9 - 1.4 9.7 - - 0.00 - 15.4 55 11 25.2 0.0 29.75 - 12.9
Calm: 0.0%
Calm: 0.0%